• Join FlightAware (Why Join?)
  • Login
  • US Flag 
09:29AM EDT


 

Airport Tracker/Info


-or-


 

Live Flight TrackerFlight Track Log ✈ EJA396 ✈ 05-May-2013 ✈ KMAF - KPSP

Flight Track Log - Related Links

Times and Time Zones

All times are in EDT time to prevent confusion due to time zone crossing. See the EJA396 flight status page for this flight to view local times or setup timezone preferences in your user account.

Time Position Orientation Groundspeed Altitude Reporting Facility
EDT Latitude Longitude Course Direction KTS MPH feet Rate Location/Type
10:27AM 31.8394 -102.1083 263° West 299 344 11,300  Level Fort Worth Center
10:28AM 31.8394 -102.2183 270° West 234 269 15,000 3,420 Climbing Fort Worth Center
10:29AM 31.8456 -102.3311 274° West 271 312 18,200 3,060 Climbing Fort Worth Center
10:30AM 31.8494 -102.4486 272° West 324 373 21,200 2,940 Climbing Fort Worth Center
10:31AM 31.9145 -102.8644 260° West  Level FlightAware Approximate
10:31AM 31.8614 -102.5667 277° West 352 405 24,100  Level Fort Worth Center
10:32AM 31.8975 -102.9750 260° West  Level FlightAware Approximate
10:32AM 31.8858 -102.6806 284° West 357 411 26,500  Level Fort Worth Center
10:33AM 31.8812 -103.0857 263° West  Level FlightAware Approximate
10:33AM 31.9100 -102.7994 283° West 368 423 28,400  Level Fort Worth Center
10:34AM 31.9319 -102.9158 283° West 386 444 30,100 1,560 Climbing Fort Worth Center
10:35AM 31.9558 -103.0369 283° West 392 451 31,600 1,500 Climbing Fort Worth Center
10:37AM 31.9911 -103.2253 283° West 393 452 33,800 1,680 Climbing Albuquerque Center
10:38AM 32.0136 -103.3464 282° West 384 442 35,800 1,920 Climbing Albuquerque Center
10:39AM 32.0364 -103.4639 283° West 373 429 37,800 1,800 Climbing Albuquerque Center
10:40AM 32.0569 -103.5733 283° West 351 404 39,500 1,500 Climbing Albuquerque Center
10:41AM 32.0769 -103.6800 283° West 338 389 40,900 1,140 Climbing Albuquerque Center
10:42AM 32.0986 -103.7853 284° West 332 382 41,900 780 Climbing Albuquerque Center
10:43AM 32.1200 -103.8928 283° West 335 386 42,600 480 Climbing Albuquerque Center
10:44AM 32.1392 -103.9986 282° West 333 383 43,000 180 Climbing Albuquerque Center
10:45AM 32.1606 -104.1217 282° West 340 391 43,000  Level Albuquerque Center
10:46AM 32.1814 -104.2344 282° West 348 400 43,000  Level Albuquerque Center
10:47AM 32.2033 -104.3494 283° West 357 411 43,000  Level Albuquerque Center
10:48AM 32.2242 -104.4631 282° West 358 412 43,000  Level Albuquerque Center
10:49AM 32.2486 -104.6008 282° West 358 412 43,000  Level Albuquerque Center
10:50AM 32.2700 -104.7142 283° West 356 410 43,000  Level Albuquerque Center
10:51AM 32.2908 -104.8306 282° West 359 413 43,000  Level Albuquerque Center
10:52AM 32.3111 -104.9483 282° West 365 420 43,000  Level Albuquerque Center
10:53AM 32.3331 -105.0653 283° West 366 421 43,000  Level Albuquerque Center
10:54AM 32.3536 -105.1819 282° West 366 421 43,000  Level Albuquerque Center
10:55AM 32.3733 -105.3017 281° West 368 423 43,000  Level Albuquerque Center
10:56AM 32.3981 -105.4417 282° West 366 421 43,000  Level Albuquerque Center
10:57AM 32.4178 -105.5575 281° West 362 417 43,000  Level Albuquerque Center
10:58AM 32.4386 -105.6739 282° West 363 418 43,000  Level Albuquerque Center
10:59AM 32.4589 -105.7919 282° West 366 421 43,000  Level Albuquerque Center
11:00AM 32.4792 -105.9106 281° West 369 425 43,000  Level Albuquerque Center
11:01AM 32.4989 -106.0261 281° West 361 415 43,000  Level Albuquerque Center
11:02AM 32.5183 -106.1442 281° West 365 420 43,000  Level Albuquerque Center
11:03AM 32.5406 -106.2742 281° West 367 422 43,000  Level Albuquerque Center
11:04AM 32.5600 -106.3914 281° West 365 420 43,000  Level Albuquerque Center
11:05AM 32.5792 -106.5075 281° West 362 417 43,000  Level Albuquerque Center
11:06AM 32.6022 -106.6456 281° West 358 412 43,000  Level Albuquerque Center
11:07AM 32.6208 -106.7614 281° West 360 414 43,000  Level Albuquerque Center
11:08AM 32.6386 -106.8725 281° West 361 415 43,000  Level Albuquerque Center
11:09AM 32.6572 -106.9822 281° West 359 413 43,000  Level Albuquerque Center
11:10AM 32.6789 -107.1219 280° West 359 413 43,000  Level Albuquerque Center
11:12AM 32.6947 -107.2281 280° West 357 411 43,000  Level Albuquerque Center
11:13AM 32.7158 -107.3578 281° West 359 413 43,000  Level Albuquerque Center
11:14AM 32.7339 -107.4736 281° West 360 414 43,000  Level Albuquerque Center
11:15AM 32.7511 -107.5883 280° West 357 411 43,000  Level Albuquerque Center
11:16AM 32.7692 -107.7042 281° West 358 412 43,000  Level Albuquerque Center
11:17AM 32.7869 -107.8219 280° West 362 417 43,000  Level Albuquerque Center
11:18AM 32.8094 -107.9636 281° West 365 420 43,000  Level Albuquerque Center
11:19AM 32.8267 -108.0831 280° West 366 421 43,000  Level Albuquerque Center
11:20AM 32.8461 -108.2067 281° West 366 421 43,000  Level Albuquerque Center
11:21AM 32.8647 -108.3244 281° West 366 421 43,000  Level Albuquerque Center
11:22AM 32.8828 -108.4436 280° West 368 423 43,000  Level Albuquerque Center
11:23AM 32.9003 -108.5625 280° West 369 425 43,000  Level Albuquerque Center
11:24AM 32.9178 -108.6817 280° West 368 423 43,000 -60 Level Albuquerque Center
11:25AM 32.9386 -108.8256 280° West 378 435 42,900  Descending Albuquerque Center
11:26AM 32.9564 -108.9461 280° West 371 427 43,000  Climbing Albuquerque Center
11:27AM 32.9733 -109.0625 280° West 362 417 43,000  Level Albuquerque Center
11:28AM 32.9925 -109.1936 280° West 367 422 43,000  Level Albuquerque Center
11:29AM 33.0092 -109.3114 280° West 365 420 43,000  Level Albuquerque Center
11:30AM 33.0258 -109.4308 279° West 367 422 43,000  Level Albuquerque Center
11:31AM 33.0414 -109.5489 279° West 365 420 43,000  Level Albuquerque Center
11:32AM 33.0581 -109.6664 280° West 363 418 43,000  Level Albuquerque Center
11:33AM 33.0742 -109.7839 279° West 362 417 43,000  Level Albuquerque Center
11:34AM 33.0942 -109.9247 280° West 362 417 43,000  Level Albuquerque Center
11:35AM 33.1092 -110.0439 279° West 365 420 43,000  Level Albuquerque Center
11:36AM 33.1297 -110.1647 282° West 371 427 43,000  Level Albuquerque Center
11:37AM 33.1450 -110.2847 279° West 369 425 43,000  Level Albuquerque Center
11:38AM 33.1606 -110.4031 279° West 366 421 43,000  Level Albuquerque Center
11:39AM 33.1769 -110.5236 279° West 369 425 43,000  Level Albuquerque Center
11:40AM 33.1953 -110.6681 279° West 370 426 43,000  Level Albuquerque Center
11:41AM 33.2094 -110.7753 279° West 366 421 43,000  Level Albuquerque Center
11:42AM 33.2244 -110.8958 278° West 366 421 43,000  Level Albuquerque Center
11:43AM 33.2431 -111.0400 279° West 366 421 43,000  Level Albuquerque Center
11:44AM 33.2592 -111.1617 279° West 370 426 43,000  Level Albuquerque Center
11:45AM 33.2733 -111.2833 278° West 371 427 43,000  Level Albuquerque Center
11:46AM 33.2881 -111.4053 278° West 370 426 43,000  Level Albuquerque Center
11:48AM 33.3031 -111.5269 278° West 370 426 43,000  Level Albuquerque Center
11:49AM 33.3175 -111.6500 278° West 371 427 43,000  Level Albuquerque Center
11:50AM 33.3328 -111.7739 278° West 375 432 43,000  Level Albuquerque Center
11:51AM 33.3467 -111.8969 278° West 374 430 43,000  Level Albuquerque Center
11:52AM 33.3614 -112.0197 278° West 372 428 43,000  Level Albuquerque Center
11:53AM 33.3794 -112.1681 278° West 374 430 43,000  Level Albuquerque Center
11:54AM 33.3928 -112.2917 277° West 374 430 43,000  Level Albuquerque Center
11:55AM 33.4069 -112.4144 278° West 373 429 43,000  Level Albuquerque Center
11:56AM 33.4211 -112.5364 278° West 371 427 43,000  Level Albuquerque Center
11:57AM 33.4367 -112.6672 278° West 370 426 43,000  Level Albuquerque Center
11:58AM 33.4489 -112.7881 277° West 369 425 43,000  Level Albuquerque Center
11:59AM 33.4708 -112.9089 282° West 371 427 43,000 -240 Level Albuquerque Center
12:00PM 33.4933 -113.0294 283° West 372 428 42,600 -1,260 Descending Albuquerque Center
12:01PM 33.5167 -113.1542 283° West 381 438 40,500 -2,040 Descending Albuquerque Center
12:02PM 33.5419 -113.2822 283° West 392 451 38,500 -2,100 Descending Albuquerque Center
12:03PM 33.5681 -113.4219 283° West 367 422 36,200 -2,100 Descending Albuquerque Center
12:04PM 33.5903 -113.5411 283° West 365 420 34,200 -1,980 Descending Albuquerque Center
12:05PM 33.6128 -113.6642 282° West 374 430 32,200 -1,860 Descending Albuquerque Center
12:06PM 33.6347 -113.7825 283° West 377 434 30,400 -1,080 Descending Albuquerque Center
12:07PM 33.6489 -113.9097 278° West 381 438 30,000 -240 Descending Albuquerque Center
12:08PM 33.6647 -114.0439 278° West 398 458 30,000  Level Albuquerque Center
12:09PM 33.6853 -114.2031 279° West 403 464 30,000  Level Albuquerque Center
12:10PM 33.6997 -114.3397 277° West 403 464 30,000  Level Albuquerque Center
12:11PM 33.7144 -114.4703 278° West 399 459 30,000  Level Albuquerque Center
12:11PM 33.7194 -114.4992 282° West 388 447 30,000 -960 Level Los Angeles Center
12:12PM 33.7336 -114.6233 278° West 378 435 28,800 -1,440 Descending Los Angeles Center
12:13PM 33.7475 -114.7506 278° West 384 442 27,100 -2,040 Descending Los Angeles Center
12:15PM 33.7644 -114.9025 278° West 385 443 24,700 -2,100 Descending Los Angeles Center
12:16PM 33.7789 -115.0331 278° West 393 452 22,800 -1,740 Descending Los Angeles Center
12:17PM 33.7933 -115.1636 278° West 395 455 21,200 -1,620 Descending Los Angeles Center
12:18PM 33.8064 -115.2897 277° West 385 443 19,500 -1,680 Descending Los Angeles Center
12:19PM 33.8194 -115.4128 277° West 377 434 17,800 -1,740 Descending Los Angeles Center
12:20PM 33.8472 -115.5267 286° West 361 415 16,000 -1,620 Descending Los Angeles Center
12:21PM 33.8842 -115.6408 291° West 365 420 14,500 -1,500 Descending Los Angeles Center
12:22PM 33.9131 -115.7736 285° West 339 390 12,700 -1,620 Descending Los Angeles Center
12:23PM 33.9042 -115.9044 265° West 327 376 10,900 -1,620 Descending Los Angeles Center
12:24PM 33.9039 -116.0172 270° West 333 383 9,400 -1,500 Descending Los Angeles Center
12:25PM 33.8906 -116.1047 260° West 297 342 7,900 -1,200 Descending Los Angeles Center
12:26PM 33.8736 -116.1853 256° West 270 311 7,000 -660 Descending Los Angeles Center
12:27PM 33.8503 -116.2833 254° West 260 299 6,600 -360 Descending Los Angeles Center
12:28PM 33.8308 -116.3622 253° West 259 298 6,300 -1,800 Descending Los Angeles Center
12:30PM 33.7833 -116.4500 237° Southwest 128 147 1,400 -1,860 Descending Southern California TRACON
12:31PM 33.8000 -116.4833 301° West 122 140 900 -540 Descending Southern California TRACON
12:33PM 33.8167 -116.5000 256° West  Level FlightAware Approximate
12:40PM 33.8297 -116.5067 256° West  Level Estimated